createdAt,value
2023-01-07T00:02:05.344Z,2.60
2023-01-07T00:04:41.552Z,2.53
2023-01-07T00:07:19.695Z,2.38
2023-01-07T00:09:55.466Z,2.58
2023-01-07T00:12:31.180Z,2.35
2023-01-07T00:15:07.529Z,2.53
2023-01-07T00:17:43.120Z,2.20
2023-01-07T00:20:19.224Z,3.10
2023-01-07T00:22:58.502Z,2.88
2023-01-07T00:25:35.180Z,2.78
2023-01-07T00:28:10.733Z,2.58
2023-01-07T00:30:46.901Z,2.53
2023-01-07T00:33:24.201Z,2.95
2023-01-07T00:36:06.045Z,2.80
2023-01-07T00:38:44.150Z,2.42
2023-01-07T00:41:20.262Z,2.85
2023-01-07T00:43:56.389Z,3.13
2023-01-07T00:46:33.777Z,2.92
2023-01-07T00:49:09.357Z,2.65
2023-01-07T00:51:45.259Z,2.40
2023-01-07T00:54:23.527Z,2.58
2023-01-07T00:56:59.412Z,3.30
2023-01-07T00:59:34.975Z,3.17
2023-01-07T01:02:10.885Z,3.00
2023-01-07T01:04:47.103Z,2.72
2023-01-07T01:07:22.905Z,2.53
2023-01-07T01:10:00.948Z,3.10
2023-01-07T01:12:37.942Z,2.70
2023-01-07T01:15:16.205Z,2.42
2023-01-07T01:17:52.157Z,2.63
2023-01-07T01:20:27.752Z,2.80
2023-01-07T01:23:03.593Z,3.15
2023-01-07T01:25:42.141Z,2.60
2023-01-07T01:28:18.506Z,2.88
2023-01-07T01:31:00.983Z,2.47
2023-01-07T01:33:44.670Z,2.58
2023-01-07T01:36:20.468Z,2.60
2023-01-07T01:38:56.784Z,2.85
2023-01-07T01:41:37.092Z,2.40
2023-01-07T01:44:47.061Z,2.60
2023-01-07T01:47:36.443Z,2.60
2023-01-07T01:50:18.820Z,3.00
2023-01-07T01:53:00.110Z,2.45
2023-01-07T01:55:41.179Z,2.42
2023-01-07T01:58:21.475Z,2.60
2023-01-07T02:00:57.757Z,2.65
2023-01-07T02:03:34.574Z,2.10
2023-01-07T02:06:14.073Z,2.47
2023-01-07T02:08:49.944Z,2.50
2023-01-07T02:11:38.524Z,2.13
2023-01-07T02:14:31.168Z,2.20
2023-01-07T02:17:15.144Z,1.80
2023-01-07T02:20:26.440Z,2.53
2023-01-07T02:23:33.253Z,2.20
2023-01-07T02:26:29.062Z,2.58
2023-01-07T02:29:40.139Z,2.28
2023-01-07T02:32:44.135Z,2.00
2023-01-07T02:35:32.310Z,1.90
2023-01-07T02:38:18.129Z,2.28
2023-01-07T02:41:06.687Z,2.10
2023-01-07T02:43:48.103Z,2.08
2023-01-07T02:46:32.407Z,1.90
2023-01-07T02:49:13.136Z,2.15
2023-01-07T02:51:49.681Z,2.00
2023-01-07T02:54:28.066Z,2.30
2023-01-07T02:57:31.774Z,2.10
2023-01-07T03:00:22.004Z,1.88
2023-01-07T03:03:28.199Z,1.70
2023-01-07T03:06:14.669Z,1.70
2023-01-07T03:09:00.678Z,1.77
2023-01-07T03:11:43.645Z,1.70
2023-01-07T03:14:24.752Z,1.95
2023-01-07T03:17:05.379Z,1.48
2023-01-07T03:19:44.299Z,1.77
2023-01-07T03:22:25.104Z,1.60
2023-01-07T03:25:04.982Z,1.52
2023-01-07T03:27:42.258Z,1.80
2023-01-07T03:30:20.286Z,1.70
2023-01-07T03:33:00.243Z,1.90
2023-01-07T03:35:41.738Z,1.70
2023-01-07T03:38:22.211Z,1.73
2023-01-07T03:41:02.961Z,1.67
2023-01-07T03:43:38.031Z,1.80
2023-01-07T03:46:21.375Z,1.45
2023-01-07T03:48:57.452Z,1.40
2023-01-07T03:51:34.439Z,1.40
2023-01-07T03:54:15.723Z,1.30
2023-01-07T03:56:54.799Z,1.52
2023-01-07T03:59:31.462Z,1.50
2023-01-07T04:02:07.323Z,1.50
2023-01-07T04:04:43.429Z,1.85
2023-01-07T04:07:19.774Z,1.42
2023-01-07T04:10:01.183Z,1.30
2023-01-07T04:12:37.148Z,1.60
2023-01-07T04:15:15.165Z,1.45
2023-01-07T04:17:51.198Z,1.30
2023-01-07T04:20:28.099Z,1.40
2023-01-07T04:23:05.995Z,1.15
2023-01-07T04:25:43.929Z,1.20
2023-01-07T04:28:20.670Z,1.33
2023-01-07T04:30:59.792Z,1.60
2023-01-07T04:33:42.183Z,1.60
2023-01-07T04:36:26.795Z,1.80
2023-01-07T04:39:10.042Z,1.55
2023-01-07T04:41:50.897Z,1.30
2023-01-07T04:44:35.705Z,1.65
2023-01-07T04:47:15.455Z,1.70
2023-01-07T04:49:56.173Z,1.70
2023-01-07T04:52:49.836Z,1.65
2023-01-07T04:55:33.176Z,1.50
2023-01-07T04:58:22.246Z,1.40
2023-01-07T05:01:13.571Z,1.88
2023-01-07T05:03:52.261Z,1.98
2023-01-07T05:06:39.352Z,1.50
2023-01-07T05:09:17.400Z,1.83
2023-01-07T05:12:06.590Z,1.60
2023-01-07T05:14:59.025Z,1.55
2023-01-07T05:17:39.631Z,1.65
2023-01-07T05:20:27.169Z,1.70
2023-01-07T05:23:22.816Z,1.55
2023-01-07T05:26:10.519Z,1.67
2023-01-07T05:28:47.212Z,1.80
2023-01-07T05:31:27.301Z,1.80
2023-01-07T05:34:05.618Z,1.40
2023-01-07T05:36:41.252Z,1.38
2023-01-07T05:39:21.221Z,1.58
2023-01-07T05:42:02.474Z,1.90
2023-01-07T05:44:50.795Z,1.60
2023-01-07T05:47:29.183Z,1.77
2023-01-07T05:50:15.084Z,1.60
2023-01-07T05:52:50.823Z,1.23
2023-01-07T05:55:36.112Z,1.42
2023-01-07T05:58:15.540Z,1.45
2023-01-07T06:00:58.656Z,1.30
2023-01-07T06:03:51.646Z,1.30
2023-01-07T06:06:32.131Z,1.50
2023-01-07T06:09:33.958Z,1.35
2023-01-07T06:12:25.338Z,1.52
2023-01-07T06:15:03.671Z,1.83
2023-01-07T06:17:41.286Z,1.90
2023-01-07T06:20:28.508Z,1.73
2023-01-07T06:23:20.375Z,1.70
2023-01-07T06:25:58.596Z,1.58
2023-01-07T06:28:33.845Z,1.90
2023-01-07T06:31:11.530Z,1.55
2023-01-07T06:33:46.853Z,1.90
2023-01-07T06:36:24.893Z,2.00
2023-01-07T06:39:00.130Z,1.60
2023-01-07T06:41:35.331Z,1.92
2023-01-07T06:44:10.089Z,1.35
2023-01-07T06:46:44.909Z,1.67
2023-01-07T06:49:19.980Z,1.38
2023-01-07T06:51:57.932Z,1.50
2023-01-07T06:54:32.495Z,1.50
2023-01-07T06:57:07.197Z,1.40
2023-01-07T06:59:44.105Z,1.30
2023-01-07T07:02:24.811Z,1.23
2023-01-07T07:04:59.942Z,1.17
2023-01-07T07:07:37.469Z,1.50
2023-01-07T07:10:13.026Z,1.50
2023-01-07T07:12:48.466Z,1.48
2023-01-07T07:15:23.222Z,1.45
2023-01-07T07:17:58.646Z,1.70
2023-01-07T07:20:33.883Z,1.80
2023-01-07T07:23:11.634Z,1.42
2023-01-07T07:25:46.246Z,1.70
2023-01-07T07:28:21.122Z,1.50
2023-01-07T07:30:56.531Z,1.63
2023-01-07T07:33:31.912Z,1.48
2023-01-07T07:36:06.528Z,1.95
2023-01-07T07:38:43.643Z,1.50
2023-01-07T07:41:22.691Z,1.80
2023-01-07T07:43:59.208Z,1.90
2023-01-07T07:46:34.833Z,1.40
2023-01-07T07:49:10.647Z,1.60
2023-01-07T07:51:46.566Z,1.60
2023-01-07T07:54:27.940Z,1.52
2023-01-07T07:57:03.438Z,1.42
2023-01-07T07:59:44.279Z,2.00
2023-01-07T08:02:21.641Z,1.50
2023-01-07T08:04:57.149Z,1.80
2023-01-07T08:07:33.087Z,1.40
2023-01-07T08:10:11.908Z,1.90
2023-01-07T08:12:48.117Z,1.70
2023-01-07T08:15:27.102Z,1.55
2023-01-07T08:18:07.460Z,1.80
2023-01-07T08:20:42.411Z,1.98
2023-01-07T08:23:18.392Z,2.00
2023-01-07T08:25:57.765Z,1.95
2023-01-07T08:28:33.131Z,2.00
2023-01-07T08:31:09.114Z,1.85
2023-01-07T08:33:45.086Z,1.92
2023-01-07T08:36:29.561Z,2.33
2023-01-07T08:39:15.603Z,2.00
2023-01-07T08:42:03.404Z,2.20
2023-01-07T08:44:41.229Z,2.10
2023-01-07T08:47:19.707Z,1.90
2023-01-07T08:49:55.875Z,2.30
2023-01-07T08:52:41.646Z,2.15
2023-01-07T08:55:26.723Z,2.70
2023-01-07T08:58:22.026Z,6.40
2023-01-07T09:01:06.369Z,3.08
2023-01-07T09:03:48.131Z,4.38
2023-01-07T09:06:53.542Z,3.95
2023-01-07T09:09:29.190Z,2.28
2023-01-07T09:12:04.877Z,6.97
2023-01-07T09:14:53.430Z,2.95
2023-01-07T09:17:36.321Z,2.65
2023-01-07T09:20:21.453Z,3.38
2023-01-07T09:23:02.332Z,4.88
2023-01-07T09:25:42.657Z,3.85
2023-01-07T09:28:27.285Z,2.63
2023-01-07T09:31:09.946Z,3.60
2023-01-07T09:33:50.699Z,4.93
2023-01-07T09:36:30.027Z,2.90
2023-01-07T09:39:09.678Z,2.92
2023-01-07T09:41:51.565Z,2.25
2023-01-07T09:44:29.236Z,2.63
2023-01-07T09:47:31.702Z,2.90
2023-01-07T09:50:25.040Z,2.97
2023-01-07T09:53:04.824Z,2.53
2023-01-07T09:56:10.686Z,2.70
2023-01-07T09:58:53.358Z,3.42
2023-01-07T10:01:37.414Z,2.80
2023-01-07T10:04:23.749Z,3.25
2023-01-07T10:07:03.938Z,3.00
2023-01-07T10:09:43.288Z,3.50
2023-01-07T10:12:22.255Z,2.75
2023-01-07T10:15:04.239Z,2.97
2023-01-07T10:17:47.600Z,2.60
2023-01-07T10:20:28.319Z,2.78
2023-01-07T10:23:06.638Z,2.90
2023-01-07T10:25:45.629Z,2.63
2023-01-07T10:28:26.868Z,2.60
2023-01-07T10:31:04.969Z,2.35
2023-01-07T10:33:40.078Z,2.95
2023-01-07T10:36:23.679Z,2.50
2023-01-07T10:39:01.846Z,2.72
2023-01-07T10:41:42.038Z,2.17
2023-01-07T10:44:32.371Z,2.63
2023-01-07T10:47:13.547Z,2.60
2023-01-07T10:49:58.903Z,2.25
2023-01-07T10:52:44.248Z,2.15
2023-01-07T10:55:27.768Z,2.10
2023-01-07T10:58:03.069Z,2.40
2023-01-07T11:00:37.742Z,2.60
2023-01-07T11:03:20.551Z,1.98
2023-01-07T11:05:57.557Z,2.50
2023-01-07T11:08:37.941Z,2.75
2023-01-07T11:11:16.600Z,2.53
2023-01-07T11:13:56.723Z,2.90
2023-01-07T11:16:33.714Z,2.65
2023-01-07T11:19:10.906Z,2.75
2023-01-07T11:21:46.258Z,2.55
2023-01-07T11:24:35.180Z,2.70
2023-01-07T11:27:12.674Z,2.58
2023-01-07T11:29:51.402Z,2.70
2023-01-07T11:32:27.922Z,2.95
2023-01-07T11:35:03.541Z,2.50
2023-01-07T11:37:43.397Z,2.45
2023-01-07T11:40:26.914Z,2.35
2023-01-07T11:43:02.353Z,2.20
2023-01-07T11:45:38.278Z,2.42
2023-01-07T11:48:14.345Z,2.22
2023-01-07T11:50:59.848Z,2.03
2023-01-07T11:53:41.762Z,2.17
2023-01-07T11:56:27.033Z,2.30
2023-01-07T11:59:38.237Z,2.45
2023-01-07T12:02:30.727Z,2.45
2023-01-07T12:05:26.256Z,2.60
2023-01-07T12:08:02.266Z,2.30
2023-01-07T12:10:40.745Z,2.53
2023-01-07T12:13:29.026Z,2.20
2023-01-07T12:16:06.076Z,2.17
2023-01-07T12:19:00.866Z,2.30
2023-01-07T12:21:45.948Z,2.03
2023-01-07T12:24:54.577Z,2.60
2023-01-07T12:27:41.624Z,2.67
2023-01-07T12:30:45.189Z,2.22
2023-01-07T12:33:30.715Z,2.10
2023-01-07T12:36:08.553Z,2.70
2023-01-07T12:38:47.571Z,3.00
2023-01-07T12:41:24.499Z,2.90
2023-01-07T12:44:04.786Z,2.40
2023-01-07T12:46:44.531Z,2.63
2023-01-07T12:49:22.333Z,2.47
2023-01-07T12:52:00.212Z,2.30
2023-01-07T12:54:40.212Z,2.30
2023-01-07T12:57:17.920Z,2.20
2023-01-07T12:59:54.561Z,2.47
2023-01-07T13:02:37.720Z,2.22
2023-01-07T13:05:17.514Z,2.20
2023-01-07T13:07:56.675Z,2.53
2023-01-07T13:10:31.775Z,2.20
2023-01-07T13:13:07.857Z,2.53
2023-01-07T13:15:46.353Z,2.28
2023-01-07T13:18:24.314Z,2.17
2023-01-07T13:21:04.858Z,2.03
2023-01-07T13:23:47.923Z,1.92
2023-01-07T13:26:27.972Z,2.25
2023-01-07T13:29:17.049Z,2.65
2023-01-07T13:32:09.887Z,2.25
2023-01-07T13:34:50.815Z,2.10
2023-01-07T13:37:34.974Z,2.47
2023-01-07T13:40:17.077Z,2.88
2023-01-07T13:42:53.236Z,2.53
2023-01-07T13:45:28.391Z,2.63
2023-01-07T13:48:05.398Z,2.42
2023-01-07T13:50:43.264Z,2.63
2023-01-07T13:53:32.470Z,2.75
2023-01-07T13:56:24.849Z,2.60
2023-01-07T13:59:00.779Z,2.47
2023-01-07T14:01:36.797Z,2.67
2023-01-07T14:04:28.957Z,2.90
2023-01-07T14:07:06.352Z,2.42
2023-01-07T14:09:43.131Z,2.22
2023-01-07T14:12:38.630Z,2.50
2023-01-07T14:15:33.190Z,2.30
2023-01-07T14:18:17.075Z,2.35
2023-01-07T14:20:54.597Z,2.38
2023-01-07T14:23:34.190Z,2.10
2023-01-07T14:26:19.347Z,2.75
2023-01-07T14:29:13.842Z,2.30
2023-01-07T14:31:52.570Z,2.38
2023-01-07T14:34:29.191Z,2.28
2023-01-07T14:37:18.489Z,2.60
2023-01-07T14:39:54.949Z,2.63
2023-01-07T14:42:47.137Z,2.95
2023-01-07T14:45:39.806Z,2.50
2023-01-07T14:48:28.280Z,2.17
2023-01-07T14:51:11.600Z,2.47
2023-01-07T14:54:00.891Z,2.50
2023-01-07T14:56:41.891Z,2.42
2023-01-07T14:59:30.489Z,2.70
2023-01-07T15:02:37.782Z,2.75
2023-01-07T15:05:21.672Z,2.45
2023-01-07T15:08:18.120Z,2.35
2023-01-07T15:11:11.041Z,2.63
2023-01-07T15:14:05.575Z,2.35
2023-01-07T15:16:41.541Z,2.60
2023-01-07T15:19:18.342Z,2.90
2023-01-07T15:21:58.282Z,2.65
2023-01-07T15:24:36.947Z,2.70
2023-01-07T15:27:15.603Z,2.40
2023-01-07T15:29:57.039Z,2.63
2023-01-07T15:32:45.359Z,2.53
2023-01-07T15:35:22.394Z,2.35
2023-01-07T15:37:58.708Z,2.30
2023-01-07T15:40:34.254Z,2.30
2023-01-07T15:43:08.749Z,2.50
2023-01-07T15:45:45.604Z,2.65
2023-01-07T15:48:21.131Z,2.92
2023-01-07T15:50:57.094Z,2.55
2023-01-07T15:53:32.210Z,2.47
2023-01-07T15:56:08.289Z,2.28
2023-01-07T15:58:51.625Z,2.67
2023-01-07T16:01:30.255Z,2.33
2023-01-07T16:04:06.005Z,2.42
2023-01-07T16:06:47.613Z,2.50
2023-01-07T16:09:28.003Z,2.63
2023-01-07T16:12:03.205Z,2.65
2023-01-07T16:14:41.236Z,2.50
2023-01-07T16:17:21.364Z,2.53
2023-01-07T16:20:13.967Z,2.50
2023-01-07T16:22:52.815Z,2.55
2023-01-07T16:25:32.714Z,2.30
2023-01-07T16:28:08.406Z,2.80
2023-01-07T16:30:48.856Z,2.60
2023-01-07T16:33:28.268Z,2.30
2023-01-07T16:36:04.160Z,2.40
2023-01-07T16:38:40.363Z,2.45
2023-01-07T16:41:21.553Z,2.55
2023-01-07T16:43:57.957Z,2.35
2023-01-07T16:46:34.818Z,2.80
2023-01-07T16:49:25.298Z,2.38
2023-01-07T16:52:02.764Z,2.38
2023-01-07T16:54:41.718Z,2.42
2023-01-07T16:57:28.836Z,2.47
2023-01-07T17:00:05.746Z,2.55
2023-01-07T17:02:43.214Z,2.28
2023-01-07T17:05:23.079Z,2.30
2023-01-07T17:08:00.130Z,2.60
2023-01-07T17:10:36.924Z,2.70
2023-01-07T17:13:12.889Z,2.60
2023-01-07T17:15:47.830Z,2.20
2023-01-07T17:18:30.842Z,2.53
2023-01-07T17:21:11.366Z,2.50
2023-01-07T17:23:48.091Z,2.45
2023-01-07T17:26:26.514Z,2.20
2023-01-07T17:29:06.499Z,2.53
2023-01-07T17:31:45.950Z,2.75
2023-01-07T17:34:22.752Z,2.47
2023-01-07T17:37:02.018Z,2.50
2023-01-07T17:39:37.955Z,2.78
2023-01-07T17:42:40.762Z,2.47
2023-01-07T17:45:25.441Z,2.38
2023-01-07T17:48:01.807Z,2.33
2023-01-07T17:50:44.244Z,2.67
2023-01-07T17:53:27.231Z,2.67
2023-01-07T17:56:04.832Z,2.78
2023-01-07T17:58:42.749Z,2.30
2023-01-07T18:01:21.300Z,2.53
2023-01-07T18:03:58.195Z,2.25
2023-01-07T18:06:39.665Z,2.13
2023-01-07T18:09:17.495Z,2.30
2023-01-07T18:12:09.226Z,2.58
2023-01-07T18:14:45.668Z,2.53
2023-01-07T18:17:21.664Z,2.22
2023-01-07T18:19:57.049Z,2.35
2023-01-07T18:22:32.553Z,2.13
2023-01-07T18:25:11.318Z,2.30
2023-01-07T18:27:46.824Z,2.40
2023-01-07T18:30:24.121Z,2.30
2023-01-07T18:33:00.007Z,2.60
2023-01-07T18:35:36.775Z,2.35
2023-01-07T18:38:15.887Z,2.60
2023-01-07T18:40:53.514Z,2.20
2023-01-07T18:43:29.027Z,2.10
2023-01-07T18:46:05.418Z,2.40
2023-01-07T18:48:42.492Z,2.45
2023-01-07T18:51:17.950Z,2.33
2023-01-07T18:53:53.264Z,2.10
2023-01-07T18:56:31.498Z,2.00
2023-01-07T18:59:07.266Z,2.20
2023-01-07T19:01:43.078Z,2.60
2023-01-07T19:04:19.228Z,2.13
2023-01-07T19:06:55.615Z,2.40
2023-01-07T19:09:32.054Z,2.30
2023-01-07T19:12:12.934Z,2.10
2023-01-07T19:14:48.656Z,2.00
2023-01-07T19:17:24.959Z,2.10
2023-01-07T19:20:01.101Z,2.50
2023-01-07T19:22:36.520Z,2.38
2023-01-07T19:25:12.500Z,1.98
2023-01-07T19:27:50.994Z,2.15
2023-01-07T19:30:26.423Z,2.78
2023-01-07T19:33:02.995Z,2.10
2023-01-07T19:35:38.810Z,2.00
2023-01-07T19:38:16.179Z,2.20
2023-01-07T19:40:51.763Z,2.15
2023-01-07T19:43:29.067Z,2.55
2023-01-07T19:46:04.946Z,1.92
2023-01-07T19:48:41.366Z,2.10
2023-01-07T19:51:17.369Z,2.03
2023-01-07T19:53:52.904Z,2.60
2023-01-07T19:56:28.290Z,2.17
2023-01-07T19:59:07.126Z,2.10
2023-01-07T20:01:44.063Z,2.10
2023-01-07T20:04:20.236Z,2.20
2023-01-07T20:06:56.350Z,2.08
2023-01-07T20:09:32.512Z,2.45
2023-01-07T20:12:08.526Z,2.35
2023-01-07T20:14:46.904Z,2.30
2023-01-07T20:17:22.543Z,2.20
2023-01-07T20:19:58.852Z,2.53
2023-01-07T20:22:34.536Z,2.13
2023-01-07T20:25:10.341Z,2.47
2023-01-07T20:27:45.816Z,2.80
2023-01-07T20:30:25.181Z,2.50
2023-01-07T20:33:01.593Z,2.28
2023-01-07T20:35:36.965Z,2.22
2023-01-07T20:38:14.136Z,2.10
2023-01-07T20:40:52.007Z,2.00
2023-01-07T20:43:27.925Z,2.17
2023-01-07T20:46:07.714Z,2.10
2023-01-07T20:48:43.500Z,2.03
2023-01-07T20:51:20.260Z,2.25
2023-01-07T20:53:56.258Z,2.17
2023-01-07T20:56:33.822Z,2.00
2023-01-07T20:59:09.174Z,2.03
2023-01-07T21:01:46.957Z,2.10
2023-01-07T21:04:21.597Z,2.20
2023-01-07T21:06:56.123Z,2.00
2023-01-07T21:09:31.239Z,2.05
2023-01-07T21:12:07.515Z,1.88
2023-01-07T21:14:44.449Z,2.20
2023-01-07T21:17:22.192Z,2.10
2023-01-07T21:19:57.822Z,2.00
2023-01-07T21:22:37.479Z,2.20
2023-01-07T21:25:16.175Z,2.15
2023-01-07T21:27:52.106Z,2.13
2023-01-07T21:30:29.887Z,1.90
2023-01-07T21:33:08.229Z,1.88
2023-01-07T21:35:45.908Z,2.10
2023-01-07T21:38:21.270Z,2.20
2023-01-07T21:40:58.648Z,2.25
2023-01-07T21:43:36.604Z,2.40
2023-01-07T21:46:15.529Z,2.10
2023-01-07T21:48:53.680Z,1.77
2023-01-07T21:51:30.589Z,2.10
2023-01-07T21:54:06.904Z,1.80
2023-01-07T21:56:43.044Z,1.70
2023-01-07T21:59:18.787Z,1.85
2023-01-07T22:01:54.271Z,1.80
2023-01-07T22:04:33.019Z,1.70
2023-01-07T22:07:08.603Z,1.70
2023-01-07T22:09:43.965Z,1.70
2023-01-07T22:12:20.539Z,1.77
2023-01-07T22:14:56.797Z,1.80
2023-01-07T22:17:32.020Z,1.80
2023-01-07T22:20:10.181Z,1.83
2023-01-07T22:22:45.709Z,2.13
2023-01-07T22:25:22.381Z,1.70
2023-01-07T22:28:03.298Z,1.65
2023-01-07T22:30:40.775Z,2.00
2023-01-07T22:33:17.605Z,1.80
2023-01-07T22:35:58.249Z,2.17
2023-01-07T22:38:35.194Z,1.50
2023-01-07T22:41:12.126Z,1.80
2023-01-07T22:43:48.284Z,1.63
2023-01-07T22:46:27.487Z,1.75
2023-01-07T22:49:04.043Z,1.73
2023-01-07T22:51:45.774Z,1.60
2023-01-07T22:54:22.710Z,1.55
2023-01-07T22:56:59.612Z,1.52
2023-01-07T22:59:37.257Z,1.60
2023-01-07T23:02:12.963Z,1.52
2023-01-07T23:04:48.312Z,2.03
2023-01-07T23:07:26.768Z,2.03
2023-01-07T23:10:02.043Z,1.50
2023-01-07T23:12:37.511Z,1.90
2023-01-07T23:15:14.761Z,1.60
2023-01-07T23:17:51.184Z,1.40
2023-01-07T23:20:27.077Z,1.42
2023-01-07T23:23:04.536Z,1.40
2023-01-07T23:25:40.093Z,1.42
2023-01-07T23:28:16.430Z,1.35
2023-01-07T23:30:52.389Z,1.40
2023-01-07T23:33:27.781Z,1.85
2023-01-07T23:36:08.004Z,1.48
2023-01-07T23:38:49.149Z,1.30
2023-01-07T23:41:24.577Z,1.48
2023-01-07T23:43:59.898Z,1.30
2023-01-07T23:46:36.526Z,1.50
2023-01-07T23:49:12.739Z,1.80
2023-01-07T23:51:48.041Z,1.60
2023-01-07T23:54:25.589Z,1.55
2023-01-07T23:57:01.134Z,1.70
2023-01-07T23:59:38.000Z,1.23
